Moxee, Washington
Current Conditions -  °F | °C
As of 7:53 AM on Thursday 30 Oct 2014 (Local Time) from KYKM Reporting Station
Light Rain Light Rain  
Wind Chill: 52°   Ceiling: 4700
Heat Index: 52°   Visibility: 7mi
Dew Point: 49°   Wind: 5mph
Humidity: 89%   Direction: 270°W
Pressure: 30.06"   Gusts: NA
Location:  46.56°N, 120.4°W
Report Text: KYKM 301453Z 27004KT 7SM -RA OVC047 11/09 A3006 RMK AO2 RAB51 SLP181 P0000 60000 T01110094 56005
Loading
Personal Weather Stations






























Interactive Weather Map
Tropical Storm Tracking
New forecast layout! Learn more

10-Day Weather Forecast

Advertisements
Track Severe Weather on mobile